Anzali, Iran

7:33 PM IRDT on July 22, 2014 (GMT +0430)
Rasht (OIGG) Elev -30 ft | 37.33 °N, 49.61 °E | Change Station

Current weather conditions updated 3 minutes ago

Clear
Clear
81 °F
Feels Like 82 °F
N
5
Wind Variable Wind from NNW

Tomorrow is forecast to be nearly the same temperature as today.

Today
High -- | Low -- °F
--% Chance of Precip.
Yesterday
High -- | Low -- °F
Precip. -- in
6:07 AM 8:28 PM
Waning Crescent, 17% visible
Pressure 29.77 in
Visibility -9999.0 miles
Clouds
Heat Index 82 °F
Dew Point 64 °F
Humidity 58%
Rainfall 0.00 in
Snow Depth Not available.
UV Not available.
Pollen Not available.
Air Quality Not available.
Flu Activity Not available.
METAR OIGG 221500Z 34004KT CAVOK 27/18 Q1008

More Conditions Fewer Conditions

Pressure 29.77 in
Visibility -9999.0 miles
Clouds
Heat Index 82 °F
Dew Point 64 °F
Humidity 58%
Rainfall 0.00 in
Snow Depth Not available.
UV Not available.
Pollen Not available.
Air Quality Not available.
Flu Activity Not available.
METAR OIGG 221500Z 34004KT CAVOK 27/18 Q1008

More Conditions Fewer Conditions

10-Day Weather Forecast

LIGHTNING

Thunderstorms are forecast for your area. Cloud conditions might be right for producing strikes in the next few days, though lightning itself cannot be forecasted.

Lightning is a visible electrical discharge produced by a thunderstorm, based on the build up of oppositely charged particles within a cloud and from cloud to ground.

Know how to stay safe in a lightning storm.

Check out these Lightning WunderPhotos!

Almanac

Astronomy

Jul. 22, 2014 Rise Set
Actual Time 6:07 AM IRDT 8:28 PM IRDT
Civil Twilight 5:38 AM IRDT 8:58 PM IRDT
Nautical Twilight 5:01 AM IRDT 9:35 PM IRDT
Astronomical Twilight 4:21 AM IRDT 10:15 PM IRDT
Moon 2:23 AM IRDT 4:46 PM IRDT
Length of Visible Light 15h 20m
Length of Day
14h 20m
Tomorrow will be 1m 30s shorter.
Waning Crescent, 17% of the Moon is Illuminated
Today
Waning Crescent
Jul 26
New
Aug 3
First Quarter
Aug 10
Full
Aug 17
Last Quarter

Today's Extremes

Country Highs Country Lows

Community

WunderPhotos

Upload Photos

1,736,257 photos uploaded!

Nearby

Snow Depth

Not available.

Earthquake Activity

City Distance Mag. Time & Date
No recent earthquake activity has been reported nearby.
Minimum magnitude displayed is 2.5.

Coastal Water Temperatures

Place Temperature
No Stations Reporting

Nearby Weather Stations

There are no personal weather stations in this area.